Gregory, MI (48137)

3:36 PM EST on February 10, 2016 (GMT -0500)
Putnam Meadows | | Change Station
CLOSE
Current Station
Personal Weather Station
Location: Pinckney, MI
Elevation: 940 ft
Nearby Weather Stations

Elev 940 ft 42.48 °N, 84.00 °W | Updated 1 minute ago

Overcast
Overcast
19.1 °F
Feels Like 19 °F
N
3.0
Wind Variable Wind from NW
Gusts 10.0 mph

Today
High -- | Low -- °F
--% Chance of Precip.
Yesterday
High -- | Low -- °F
Precip. -- in
Pressure 29.82 in
Visibility 7.0 miles
Clouds Scattered Clouds 4300 ft
Overcast 5000 ft
Windchill 19 °F
Dew Point 7 °F
Humidity 59%
Rainfall 0.00 in
Snow Depth Not available.
7:40 AM 6:01 PM
Waxing Crescent, 7% visible
METAR KOZW 102014Z AUTO 30013G18KT 7SM SCT043 OVC050 M07/M14 A2982 RMK AO2 T10731145
Pressure 29.82 in
Visibility 7.0 miles
Clouds Scattered Clouds 4300 ft
Overcast 5000 ft
Windchill 19 °F
Dew Point 7 °F
Humidity 59%
Rainfall 0.00 in
Snow Depth Not available.
7:40 AM 6:01 PM
Waxing Crescent, 7% visible
METAR KOZW 102014Z AUTO 30013G18KT 7SM SCT043 OVC050 M07/M14 A2982 RMK AO2 T10731145

10-Day Weather Forecast

Almanac

Astronomy

Feb. 10, 2016 Rise Set
Actual Time
Civil Twilight
Nautical Twilight
Astronomical Twilight
Moon
Length of Visible Light
Length of Day
Tomorrow will be .
, % of the Moon is Illuminated

Today's Extremes

State Highs State Lows

Community

WunderPhotos

Upload Photos

1,891,943 photos uploaded!

WunderBlog® & News

Nearby

Air Quality

  Air Quality AQ Index Pollutant
Not available.

Snow Depth

Station Depth Elevation

Earthquake Activity

City Distance Mag. Time & Date
Minimum magnitude displayed is 2.5.

Coastal Water Temperatures

Place Temperature

Stations

Nearby Weather Stations

Station Location Temp. Windchill Dew Point Humidity Wind Precip. Elev Updated Type
                   

Watches & Warnings

There are currently no watches in effect.